createdAt,value
2018-05-08T00:01:30.954Z,17.30
2018-05-08T00:04:00.403Z,17.30
2018-05-08T00:06:28.974Z,17.20
2018-05-08T00:08:57.188Z,17.20
2018-05-08T00:11:25.629Z,17.20
2018-05-08T00:13:54.133Z,17.10
2018-05-08T00:16:22.695Z,17.10
2018-05-08T00:18:50.912Z,17.00
2018-05-08T00:21:19.925Z,17.00
2018-05-08T00:23:48.447Z,16.80
2018-05-08T00:26:17.044Z,16.40
2018-05-08T00:28:45.637Z,16.20
2018-05-08T00:31:14.152Z,15.90
2018-05-08T00:33:43.460Z,16.00
2018-05-08T00:36:12.872Z,16.20
2018-05-08T00:38:41.173Z,16.20
2018-05-08T00:41:09.388Z,16.30
2018-05-08T00:43:37.585Z,16.20
2018-05-08T00:46:05.804Z,15.90
2018-05-08T00:48:34.661Z,15.90
2018-05-08T00:51:02.809Z,15.90
2018-05-08T00:53:32.660Z,15.70
2018-05-08T00:56:01.445Z,15.80
2018-05-08T00:58:29.617Z,15.60
2018-05-08T01:00:57.707Z,15.50
2018-05-08T01:03:26.018Z,15.50
2018-05-08T01:05:54.766Z,15.30
2018-05-08T01:08:23.539Z,15.10
2018-05-08T01:10:51.727Z,14.90
2018-05-08T01:13:20.787Z,15.00
2018-05-08T01:15:49.821Z,14.90
2018-05-08T01:18:18.112Z,14.90
2018-05-08T01:20:46.220Z,14.90
2018-05-08T01:23:14.525Z,15.00
2018-05-08T01:25:42.871Z,15.10
2018-05-08T01:28:12.413Z,14.90
2018-05-08T01:30:41.165Z,14.90
2018-05-08T01:33:09.517Z,14.60
2018-05-08T01:35:38.385Z,14.50
2018-05-08T01:38:07.393Z,14.60
2018-05-08T01:40:35.608Z,14.30
2018-05-08T01:43:04.568Z,14.40
2018-05-08T01:45:33.314Z,14.40
2018-05-08T01:48:03.127Z,14.20
2018-05-08T01:50:32.019Z,14.00
2018-05-08T01:53:02.960Z,13.90
2018-05-08T01:55:31.467Z,13.90
2018-05-08T01:57:59.776Z,13.80
2018-05-08T02:00:28.609Z,13.80
2018-05-08T02:02:58.496Z,13.80
2018-05-08T02:05:28.173Z,13.80
2018-05-08T02:07:56.935Z,13.70
2018-05-08T02:10:25.747Z,13.90
2018-05-08T02:12:54.087Z,14.00
2018-05-08T02:15:22.164Z,13.80
2018-05-08T02:17:51.048Z,13.70
2018-05-08T02:20:22.627Z,13.70
2018-05-08T02:22:50.951Z,13.50
2018-05-08T02:25:20.025Z,13.40
2018-05-08T02:27:48.990Z,13.30
2018-05-08T02:30:17.236Z,13.30
2018-05-08T02:32:45.571Z,13.40
2018-05-08T02:35:13.876Z,13.40
2018-05-08T02:37:42.163Z,13.00
2018-05-08T02:40:10.463Z,13.00
2018-05-08T02:42:38.708Z,12.80
2018-05-08T02:45:07.597Z,12.80
2018-05-08T02:47:35.888Z,12.90
2018-05-08T02:50:04.073Z,13.00
2018-05-08T02:52:32.417Z,13.30
2018-05-08T02:55:00.716Z,13.10
2018-05-08T02:57:29.047Z,13.30
2018-05-08T02:59:58.736Z,12.90
2018-05-08T03:02:26.816Z,12.70
2018-05-08T03:04:55.576Z,12.80
2018-05-08T03:07:23.896Z,12.40
2018-05-08T03:09:52.252Z,12.40
2018-05-08T03:12:20.547Z,12.50
2018-05-08T03:14:52.896Z,12.60
2018-05-08T03:17:21.629Z,12.40
2018-05-08T03:19:51.299Z,12.40
2018-05-08T03:22:19.670Z,12.30
2018-05-08T03:24:47.921Z,12.40
2018-05-08T03:27:16.263Z,12.40
2018-05-08T03:29:45.900Z,12.50
2018-05-08T03:32:15.424Z,12.50
2018-05-08T03:34:43.774Z,12.30
2018-05-08T03:37:13.361Z,12.20
2018-05-08T03:39:42.212Z,12.20
2018-05-08T03:42:11.119Z,12.20
2018-05-08T03:44:39.409Z,12.00
2018-05-08T03:47:07.613Z,11.90
2018-05-08T03:49:37.147Z,11.90
2018-05-08T03:52:05.436Z,12.20
2018-05-08T03:54:34.230Z,12.10
2018-05-08T03:57:02.540Z,12.10
2018-05-08T03:59:31.303Z,12.10
2018-05-08T04:02:17.781Z,12.10
2018-05-08T04:05:04.080Z,12.10
2018-05-08T04:07:50.696Z,12.00
2018-05-08T04:10:18.801Z,12.00
2018-05-08T04:12:46.947Z,11.90
2018-05-08T04:15:15.226Z,11.80
2018-05-08T04:17:44.002Z,12.00
2018-05-08T04:20:12.432Z,12.00
2018-05-08T04:22:41.191Z,12.10
2018-05-08T04:25:09.366Z,12.00
2018-05-08T04:27:38.354Z,12.00
2018-05-08T04:30:07.146Z,12.00
2018-05-08T04:32:35.436Z,11.90
2018-05-08T04:35:03.613Z,12.20
2018-05-08T04:37:33.608Z,12.10
2018-05-08T04:40:02.402Z,12.10
2018-05-08T04:42:31.210Z,12.10
2018-05-08T04:44:59.323Z,12.00
2018-05-08T04:47:28.199Z,12.10
2018-05-08T04:49:56.456Z,12.00
2018-05-08T04:52:25.216Z,12.00
2018-05-08T04:54:53.306Z,12.20
2018-05-08T04:57:21.445Z,12.10
2018-05-08T04:59:50.077Z,12.20
2018-05-08T05:02:18.601Z,12.30
2018-05-08T05:04:46.896Z,12.20
2018-05-08T05:07:15.712Z,12.30
2018-05-08T05:09:44.569Z,12.30
2018-05-08T05:12:13.362Z,12.40
2018-05-08T05:14:42.904Z,12.50
2018-05-08T05:17:11.264Z,12.60
2018-05-08T05:19:40.883Z,12.70
2018-05-08T05:22:09.132Z,12.90
2018-05-08T05:24:38.912Z,12.90
2018-05-08T05:27:07.819Z,12.90
2018-05-08T05:29:36.131Z,12.90
2018-05-08T05:32:04.413Z,13.10
2018-05-08T05:34:33.271Z,13.20
2018-05-08T05:37:02.187Z,13.20
2018-05-08T05:39:31.075Z,13.40
2018-05-08T05:41:59.844Z,13.50
2018-05-08T05:44:28.731Z,13.60
2018-05-08T05:46:57.536Z,13.60
2018-05-08T05:49:26.166Z,13.70
2018-05-08T05:51:55.001Z,13.80
2018-05-08T05:54:23.067Z,13.90
2018-05-08T05:56:52.468Z,14.10
2018-05-08T05:59:23.113Z,14.20
2018-05-08T06:01:54.528Z,14.30
2018-05-08T06:04:23.654Z,14.40
2018-05-08T06:06:52.458Z,14.50
2018-05-08T06:09:23.171Z,14.60
2018-05-08T06:11:54.188Z,14.70
2018-05-08T06:14:28.800Z,14.80
2018-05-08T06:16:58.648Z,14.80
2018-05-08T06:19:28.053Z,14.90
2018-05-08T06:21:56.337Z,15.00
2018-05-08T06:24:24.668Z,15.10
2018-05-08T06:26:53.548Z,15.10
2018-05-08T06:29:21.875Z,15.20
2018-05-08T06:31:50.671Z,15.30
2018-05-08T06:34:20.463Z,15.40
2018-05-08T06:36:49.265Z,15.50
2018-05-08T06:39:23.133Z,15.60
2018-05-08T06:41:51.208Z,15.60
2018-05-08T06:44:20.793Z,15.70
2018-05-08T06:46:50.008Z,15.80
2018-05-08T06:49:18.545Z,15.80
2018-05-08T06:51:46.859Z,15.90
2018-05-08T06:54:15.932Z,16.00
2018-05-08T06:56:44.543Z,16.00
2018-05-08T06:59:15.737Z,16.10
2018-05-08T07:01:43.900Z,16.20
2018-05-08T07:04:11.988Z,16.30
2018-05-08T07:06:40.100Z,16.30
2018-05-08T07:09:08.340Z,16.40
2018-05-08T07:11:36.639Z,16.50
2018-05-08T07:14:04.769Z,16.50
2018-05-08T07:16:32.858Z,16.50
2018-05-08T07:19:01.172Z,16.50
2018-05-08T07:21:29.465Z,16.60
2018-05-08T07:23:58.317Z,16.60
2018-05-08T07:26:27.437Z,16.70
2018-05-08T07:28:55.761Z,16.70
2018-05-08T07:31:23.845Z,16.90
2018-05-08T07:33:51.944Z,17.00
2018-05-08T07:36:20.042Z,17.00
2018-05-08T07:38:48.166Z,17.10
2018-05-08T07:41:16.442Z,17.20
2018-05-08T07:43:44.524Z,17.30
2018-05-08T07:46:12.843Z,17.40
2018-05-08T07:48:41.083Z,17.40
2018-05-08T07:51:09.409Z,17.50
2018-05-08T07:53:37.723Z,17.50
2018-05-08T07:56:06.506Z,17.60
2018-05-08T07:58:35.312Z,17.70
2018-05-08T08:01:03.374Z,17.80
2018-05-08T08:03:31.722Z,17.80
2018-05-08T08:06:00.568Z,17.90
2018-05-08T08:08:28.885Z,17.90
2018-05-08T08:10:57.484Z,18.00
2018-05-08T08:13:25.799Z,18.10
2018-05-08T08:15:53.904Z,18.10
2018-05-08T08:18:22.179Z,18.10
2018-05-08T08:20:51.037Z,18.20
2018-05-08T08:23:19.810Z,18.30
2018-05-08T08:25:48.111Z,18.30
2018-05-08T08:28:16.385Z,18.40
2018-05-08T08:33:30.176Z,18.40
2018-05-08T08:36:00.260Z,18.40
2018-05-08T08:38:31.304Z,18.40
2018-05-08T08:41:00.253Z,18.40
2018-05-08T08:43:29.252Z,18.50
2018-05-08T08:45:57.596Z,18.50
2018-05-08T08:48:27.860Z,18.60
2018-05-08T08:50:56.560Z,18.60
2018-05-08T08:53:31.282Z,18.70
2018-05-08T08:56:01.274Z,18.70
2018-05-08T08:58:35.507Z,18.70
2018-05-08T09:01:04.196Z,18.70
2018-05-08T09:03:32.328Z,18.90
2018-05-08T09:06:04.049Z,18.90
2018-05-08T09:08:32.754Z,18.80
2018-05-08T09:11:00.828Z,18.90
2018-05-08T09:13:30.073Z,19.10
2018-05-08T09:15:58.283Z,19.20
2018-05-08T09:18:28.088Z,19.20
2018-05-08T09:20:56.188Z,19.20
2018-05-08T09:23:25.208Z,19.30
2018-05-08T09:25:55.943Z,19.40
2018-05-08T09:28:27.696Z,19.40
2018-05-08T09:30:57.038Z,19.40
2018-05-08T09:33:26.028Z,19.40
2018-05-08T09:35:55.745Z,19.50
2018-05-08T09:38:25.768Z,19.60
2018-05-08T09:40:57.069Z,19.60
2018-05-08T09:43:25.098Z,19.70
2018-05-08T09:45:53.184Z,19.70
2018-05-08T09:48:22.260Z,19.70
2018-05-08T09:50:50.568Z,19.80
2018-05-08T09:53:19.635Z,19.80
2018-05-08T09:55:48.499Z,19.90
2018-05-08T09:58:16.832Z,19.90
2018-05-08T10:00:47.641Z,19.90
2018-05-08T10:03:20.695Z,20.00
2018-05-08T10:05:49.520Z,20.00
2018-05-08T10:08:18.403Z,20.10
2018-05-08T10:10:47.185Z,20.10
2018-05-08T10:13:15.355Z,20.20
2018-05-08T10:15:44.135Z,20.50
2018-05-08T10:18:14.804Z,20.60
2018-05-08T10:20:42.918Z,20.60
2018-05-08T10:23:12.966Z,20.50
2018-05-08T10:25:41.858Z,20.70
2018-05-08T10:28:10.531Z,21.00
2018-05-08T10:30:38.761Z,21.10
2018-05-08T10:33:07.183Z,21.00
2018-05-08T10:35:38.332Z,21.00
2018-05-08T10:38:07.913Z,21.00
2018-05-08T10:40:36.434Z,21.00
2018-05-08T10:43:04.534Z,21.10
2018-05-08T10:45:33.395Z,21.10
2018-05-08T10:48:01.706Z,21.20
2018-05-08T10:50:29.809Z,21.10
2018-05-08T10:52:57.905Z,21.10
2018-05-08T10:55:26.214Z,21.40
2018-05-08T10:57:55.081Z,21.50
2018-05-08T11:00:26.265Z,21.50
2018-05-08T11:02:56.713Z,21.50
2018-05-08T11:05:25.590Z,21.60
2018-05-08T11:07:54.283Z,21.80
2018-05-08T11:10:22.642Z,21.90
2018-05-08T11:12:50.939Z,21.80
2018-05-08T11:15:19.054Z,21.80
2018-05-08T11:17:47.189Z,21.80
2018-05-08T11:20:16.023Z,21.70
2018-05-08T11:22:44.191Z,21.70
2018-05-08T11:25:12.516Z,21.70
2018-05-08T11:27:40.618Z,21.60
2018-05-08T11:30:08.751Z,21.80
2018-05-08T11:32:37.055Z,21.90
2018-05-08T11:35:06.101Z,22.00
2018-05-08T11:37:40.224Z,22.10
2018-05-08T11:40:08.319Z,22.00
2018-05-08T11:42:36.501Z,21.90
2018-05-08T11:45:04.835Z,21.90
2018-05-08T11:47:34.088Z,22.00
2018-05-08T11:50:02.292Z,22.10
2018-05-08T11:52:30.300Z,22.30
2018-05-08T11:54:58.629Z,22.30
2018-05-08T11:57:27.839Z,22.30
2018-05-08T11:59:56.147Z,22.40
2018-05-08T12:02:25.168Z,22.80
2018-05-08T12:04:55.749Z,23.10
2018-05-08T12:07:25.464Z,23.60
2018-05-08T12:09:54.453Z,24.10
2018-05-08T12:12:22.757Z,24.50
2018-05-08T12:14:50.963Z,24.80
2018-05-08T12:17:19.251Z,25.20
2018-05-08T12:19:49.084Z,25.70
2018-05-08T12:22:18.223Z,26.00
2018-05-08T12:24:46.309Z,26.30
2018-05-08T12:27:16.093Z,26.30
2018-05-08T12:29:45.020Z,26.60
2018-05-08T12:32:13.111Z,26.80
2018-05-08T12:34:42.641Z,27.00
2018-05-08T12:37:12.037Z,27.10
2018-05-08T12:39:41.299Z,27.20
2018-05-08T12:42:10.169Z,27.40
2018-05-08T12:44:38.917Z,27.70
2018-05-08T12:47:07.721Z,27.90
2018-05-08T12:49:36.238Z,27.70
2018-05-08T12:52:04.658Z,27.90
2018-05-08T12:54:32.971Z,28.10
2018-05-08T12:57:01.283Z,28.20
2018-05-08T12:59:29.584Z,28.10
2018-05-08T13:01:57.884Z,27.70
2018-05-08T13:04:26.688Z,27.90
2018-05-08T13:06:55.586Z,28.10
2018-05-08T13:09:23.942Z,28.20
2018-05-08T13:11:53.145Z,28.60
2018-05-08T13:14:22.137Z,28.50
2018-05-08T13:16:50.260Z,28.60
2018-05-08T13:19:18.622Z,28.50
2018-05-08T13:21:48.904Z,28.60
2018-05-08T13:24:18.641Z,28.80
2018-05-08T13:26:46.849Z,28.70
2018-05-08T13:29:14.925Z,28.80
2018-05-08T13:31:45.388Z,28.90
2018-05-08T13:34:15.121Z,28.90
2018-05-08T13:36:43.255Z,29.00
2018-05-08T13:39:11.343Z,28.90
2018-05-08T13:41:39.463Z,29.10
2018-05-08T13:44:07.980Z,28.90
2018-05-08T13:46:36.504Z,28.90
2018-05-08T13:49:07.638Z,28.90
2018-05-08T13:51:35.972Z,29.20
2018-05-08T13:54:05.351Z,29.30
2018-05-08T13:56:34.364Z,29.30
2018-05-08T13:59:03.506Z,29.30
2018-05-08T14:01:32.072Z,29.60
2018-05-08T14:04:00.581Z,29.70
2018-05-08T14:06:29.331Z,29.50
2018-05-08T14:08:58.075Z,29.30
2018-05-08T14:11:28.413Z,29.10
2018-05-08T14:13:59.116Z,28.90
2018-05-08T14:18:59.777Z,28.90
2018-05-08T14:21:28.096Z,29.20
2018-05-08T14:23:59.000Z,29.30
2018-05-08T14:26:27.100Z,29.40
2018-05-08T14:28:56.997Z,29.00
2018-05-08T14:31:25.457Z,29.00
2018-05-08T14:33:54.237Z,28.90
2018-05-08T14:36:22.335Z,28.70
2018-05-08T14:38:51.084Z,28.70
2018-05-08T14:41:19.907Z,28.90
2018-05-08T14:43:48.017Z,29.00
2018-05-08T14:46:16.869Z,28.90
2018-05-08T14:48:45.228Z,28.80
2018-05-08T14:51:13.300Z,29.00
2018-05-08T14:53:41.667Z,28.90
2018-05-08T14:56:10.291Z,29.00
2018-05-08T14:58:38.602Z,28.90
2018-05-08T15:01:08.441Z,28.80
2018-05-08T15:03:37.155Z,28.70
2018-05-08T15:06:05.468Z,28.60
2018-05-08T15:08:34.441Z,28.70
2018-05-08T15:11:03.286Z,28.90
2018-05-08T15:13:31.527Z,28.80
2018-05-08T15:16:01.772Z,28.80
2018-05-08T15:18:30.624Z,28.60
2018-05-08T15:20:59.397Z,28.70
2018-05-08T15:23:27.840Z,28.80
2018-05-08T15:25:55.918Z,28.90
2018-05-08T15:28:24.032Z,28.80
2018-05-08T15:30:55.394Z,28.80
2018-05-08T15:33:24.072Z,28.90
2018-05-08T15:35:52.230Z,28.90
2018-05-08T15:38:20.381Z,28.70
2018-05-08T15:40:48.653Z,28.70
2018-05-08T15:43:17.268Z,28.80
2018-05-08T15:45:45.554Z,28.70
2018-05-08T15:48:13.883Z,28.90
2018-05-08T15:50:42.672Z,28.80
2018-05-08T15:53:10.999Z,28.80
2018-05-08T15:55:39.843Z,28.80
2018-05-08T15:58:07.917Z,28.80
2018-05-08T16:00:36.761Z,28.80
2018-05-08T16:03:05.024Z,28.90
2018-05-08T16:05:34.727Z,29.10
2018-05-08T16:08:03.506Z,29.00
2018-05-08T16:10:32.371Z,29.10
2018-05-08T16:13:00.816Z,29.20
2018-05-08T16:15:30.584Z,29.20
2018-05-08T16:18:01.192Z,29.20
2018-05-08T16:20:30.809Z,29.30
2018-05-08T16:23:00.365Z,29.30
2018-05-08T16:25:29.168Z,29.30
2018-05-08T16:27:57.269Z,29.30
2018-05-08T16:30:26.025Z,29.30
2018-05-08T16:32:54.258Z,29.40
2018-05-08T16:35:23.028Z,29.40
2018-05-08T16:37:51.166Z,29.30
2018-05-08T16:40:19.472Z,29.30
2018-05-08T16:42:48.254Z,29.20
2018-05-08T16:45:16.700Z,29.20
2018-05-08T16:47:45.763Z,29.20
2018-05-08T16:50:14.077Z,29.10
2018-05-08T16:52:42.360Z,29.10
2018-05-08T16:55:11.539Z,29.10
2018-05-08T16:57:39.804Z,29.00
2018-05-08T17:00:08.663Z,28.90
2018-05-08T17:02:38.158Z,28.80
2018-05-08T17:05:06.493Z,28.80
2018-05-08T17:07:35.474Z,28.70
2018-05-08T17:10:03.584Z,28.70
2018-05-08T17:12:32.445Z,28.70
2018-05-08T17:15:00.644Z,28.50
2018-05-08T17:17:29.504Z,28.30
2018-05-08T17:19:58.288Z,28.20
2018-05-08T17:22:26.559Z,28.20
2018-05-08T17:24:55.891Z,28.00
2018-05-08T17:27:24.669Z,28.00
2018-05-08T17:29:53.708Z,27.80
2018-05-08T17:32:22.800Z,27.70
2018-05-08T17:34:51.537Z,27.60
2018-05-08T17:37:20.152Z,27.50
2018-05-08T17:39:49.221Z,27.40
2018-05-08T17:42:19.023Z,27.30
2018-05-08T17:44:47.340Z,27.20
2018-05-08T17:47:16.932Z,27.10
2018-05-08T17:49:45.697Z,27.00
2018-05-08T17:52:14.345Z,27.00
2018-05-08T17:54:43.946Z,26.80
2018-05-08T17:57:12.244Z,26.70
2018-05-08T17:59:41.317Z,26.50
2018-05-08T18:02:10.133Z,26.40
2018-05-08T18:04:38.693Z,26.40
2018-05-08T18:07:07.520Z,26.20
2018-05-08T18:09:35.625Z,26.10
2018-05-08T18:12:04.108Z,25.90
2018-05-08T18:14:34.219Z,25.90
2018-05-08T18:17:03.078Z,25.70
2018-05-08T18:19:31.926Z,25.60
2018-05-08T18:22:01.546Z,25.40
2018-05-08T18:24:29.888Z,25.30
2018-05-08T18:26:58.441Z,25.20
2018-05-08T18:29:26.832Z,25.00
2018-05-08T18:31:54.927Z,24.90
2018-05-08T18:34:24.836Z,24.80
2018-05-08T18:36:54.693Z,24.60
2018-05-08T18:39:24.297Z,24.50
2018-05-08T18:41:52.681Z,24.30
2018-05-08T18:44:21.429Z,24.10
2018-05-08T18:46:49.552Z,23.70
2018-05-08T18:49:18.528Z,23.70
2018-05-08T18:51:46.783Z,23.50
2018-05-08T18:54:15.114Z,23.30
2018-05-08T18:56:44.120Z,23.10
2018-05-08T18:59:12.439Z,23.10
2018-05-08T19:01:40.528Z,22.90
2018-05-08T19:04:10.664Z,22.60
2018-05-08T19:06:39.465Z,22.40
2018-05-08T19:09:07.940Z,22.30
2018-05-08T19:11:42.315Z,22.30
2018-05-08T19:14:11.967Z,21.90
2018-05-08T19:16:40.521Z,21.80
2018-05-08T19:19:17.011Z,21.70
2018-05-08T19:21:45.776Z,21.40
2018-05-08T19:24:20.664Z,21.20
2018-05-08T19:26:48.741Z,21.10
2018-05-08T19:29:24.444Z,21.00
2018-05-08T19:31:52.805Z,21.10
2018-05-08T19:34:21.608Z,21.00
2018-05-08T19:36:56.969Z,20.90
2018-05-08T19:39:25.576Z,20.90
2018-05-08T19:41:54.332Z,20.50
2018-05-08T19:44:22.473Z,20.60
2018-05-08T19:46:50.892Z,20.50
2018-05-08T19:49:20.499Z,20.30
2018-05-08T19:51:48.984Z,20.30
2018-05-08T19:54:18.054Z,20.30
2018-05-08T19:56:47.929Z,20.10
2018-05-08T19:59:18.058Z,20.00
2018-05-08T20:01:47.269Z,19.90
2018-05-08T20:04:16.236Z,19.80
2018-05-08T20:06:44.495Z,19.60
2018-05-08T20:09:13.264Z,19.40
2018-05-08T20:11:41.564Z,19.40
2018-05-08T20:14:10.506Z,19.40
2018-05-08T20:16:39.516Z,19.30
2018-05-08T20:19:08.309Z,19.10
2018-05-08T20:21:38.841Z,18.70
2018-05-08T20:24:07.548Z,18.70
2018-05-08T20:26:37.390Z,18.80
2018-05-08T20:29:08.076Z,18.90
2018-05-08T20:31:36.852Z,18.90
2018-05-08T20:34:06.692Z,18.70
2018-05-08T20:36:37.887Z,18.60
2018-05-08T20:39:06.709Z,18.70
2018-05-08T20:41:35.020Z,18.70
2018-05-08T20:44:03.797Z,18.70
2018-05-08T20:46:32.099Z,18.50
2018-05-08T20:49:01.108Z,18.40
2018-05-08T20:51:29.848Z,18.50
2018-05-08T20:53:59.071Z,18.50
2018-05-08T20:56:27.476Z,18.30
2018-05-08T20:58:55.809Z,18.10
2018-05-08T21:01:24.181Z,18.10
2018-05-08T21:03:52.396Z,18.20
2018-05-08T21:06:21.249Z,17.90
2018-05-08T21:08:50.069Z,18.10
2018-05-08T21:11:19.624Z,18.00
2018-05-08T21:13:47.868Z,17.90
2018-05-08T21:16:16.957Z,17.80
2018-05-08T21:18:46.716Z,17.80
2018-05-08T21:21:15.516Z,17.70
2018-05-08T21:23:44.357Z,17.60
2018-05-08T21:26:13.141Z,17.50
2018-05-08T21:28:50.293Z,17.50
2018-05-08T21:31:18.652Z,17.40
2018-05-08T21:33:47.552Z,17.40
2018-05-08T21:36:15.733Z,17.30
2018-05-08T21:38:44.015Z,17.20
2018-05-08T21:41:12.576Z,17.00
2018-05-08T21:43:41.693Z,17.20
2018-05-08T21:46:10.156Z,17.30
2018-05-08T21:48:39.837Z,17.50
2018-05-08T21:51:09.783Z,17.30
2018-05-08T21:53:41.609Z,17.30
2018-05-08T21:56:10.385Z,17.30
2018-05-08T21:58:39.577Z,17.20
2018-05-08T22:01:07.853Z,16.80
2018-05-08T22:03:37.401Z,16.90
2018-05-08T22:06:06.982Z,16.80
2018-05-08T22:08:35.103Z,16.70
2018-05-08T22:11:05.447Z,16.80
2018-05-08T22:13:33.787Z,16.50
2018-05-08T22:16:02.613Z,16.60
2018-05-08T22:18:37.528Z,16.60
2018-05-08T22:23:44.980Z,16.60
2018-05-08T22:26:14.834Z,16.50
2018-05-08T22:31:35.823Z,16.50
2018-05-08T22:34:04.122Z,16.50
2018-05-08T22:36:33.118Z,16.70
2018-05-08T22:39:01.860Z,16.70
2018-05-08T22:41:30.139Z,16.70
2018-05-08T22:43:58.919Z,16.70
2018-05-08T22:46:27.232Z,16.40
2018-05-08T22:48:56.051Z,16.40
2018-05-08T22:51:25.255Z,16.40
2018-05-08T22:53:53.849Z,16.60
2018-05-08T22:56:22.308Z,16.60
2018-05-08T22:58:51.114Z,16.90
2018-05-08T23:01:20.094Z,16.90
2018-05-08T23:03:48.871Z,17.00
2018-05-08T23:06:17.715Z,17.10
2018-05-08T23:08:46.066Z,17.20
2018-05-08T23:11:14.349Z,17.20
2018-05-08T23:13:43.202Z,17.30
2018-05-08T23:16:12.027Z,17.30
2018-05-08T23:18:41.016Z,17.30
2018-05-08T23:21:09.870Z,17.30
2018-05-08T23:23:38.151Z,17.50
2018-05-08T23:26:06.940Z,17.50
2018-05-08T23:28:35.531Z,17.50
2018-05-08T23:31:04.444Z,17.40
2018-05-08T23:33:32.830Z,17.40
2018-05-08T23:36:02.545Z,17.30
2018-05-08T23:38:30.728Z,17.50
2018-05-08T23:40:59.474Z,17.40
2018-05-08T23:43:27.860Z,17.50
2018-05-08T23:45:56.677Z,17.20
2018-05-08T23:48:25.445Z,17.30
2018-05-08T23:50:54.415Z,17.20
2018-05-08T23:53:23.754Z,17.20
2018-05-08T23:55:52.660Z,17.20
2018-05-08T23:58:20.972Z,17.10
